sensor_id;sensor_type;location;lat;lon;timestamp;temperature;humidity
14138;DHT22;8199;51.310;9.466;2023-08-30T00:01:39;25.10;48.10
14138;DHT22;8199;51.310;9.466;2023-08-30T00:04:05;25.00;48.20
14138;DHT22;8199;51.310;9.466;2023-08-30T00:06:30;24.90;48.40
14138;DHT22;8199;51.310;9.466;2023-08-30T00:08:57;25.00;48.30
14138;DHT22;8199;51.310;9.466;2023-08-30T00:11:23;24.90;48.30
14138;DHT22;8199;51.310;9.466;2023-08-30T00:13:49;24.90;48.40
14138;DHT22;8199;51.310;9.466;2023-08-30T00:16:14;24.90;48.50
14138;DHT22;8199;51.310;9.466;2023-08-30T00:18:42;24.90;48.50
14138;DHT22;8199;51.310;9.466;2023-08-30T00:21:08;25.00;48.30
14138;DHT22;8199;51.310;9.466;2023-08-30T00:23:34;24.90;48.20
14138;DHT22;8199;51.310;9.466;2023-08-30T00:25:59;24.80;48.10
14138;DHT22;8199;51.310;9.466;2023-08-30T00:28:25;24.80;48.30
14138;DHT22;8199;51.310;9.466;2023-08-30T00:30:54;24.80;48.30
14138;DHT22;8199;51.310;9.466;2023-08-30T00:33:20;24.80;48.30
14138;DHT22;8199;51.310;9.466;2023-08-30T00:35:45;24.70;48.60
14138;DHT22;8199;51.310;9.466;2023-08-30T00:38:11;24.70;48.80
14138;DHT22;8199;51.310;9.466;2023-08-30T00:40:40;24.70;49.00
14138;DHT22;8199;51.310;9.466;2023-08-30T00:43:07;24.90;48.60
14138;DHT22;8199;51.310;9.466;2023-08-30T00:45:33;24.90;48.50
14138;DHT22;8199;51.310;9.466;2023-08-30T00:48:00;24.80;48.40
14138;DHT22;8199;51.310;9.466;2023-08-30T00:50:25;24.90;48.50
14138;DHT22;8199;51.310;9.466;2023-08-30T00:52:51;24.90;48.40
14138;DHT22;8199;51.310;9.466;2023-08-30T00:55:16;24.90;48.40
14138;DHT22;8199;51.310;9.466;2023-08-30T00:57:42;24.80;48.40
14138;DHT22;8199;51.310;9.466;2023-08-30T01:00:09;24.80;48.30
14138;DHT22;8199;51.310;9.466;2023-08-30T01:02:36;24.80;48.50
14138;DHT22;8199;51.310;9.466;2023-08-30T01:05:02;24.80;48.50
14138;DHT22;8199;51.310;9.466;2023-08-30T01:07:29;24.70;48.40
14138;DHT22;8199;51.310;9.466;2023-08-30T01:09:54;24.80;48.70
14138;DHT22;8199;51.310;9.466;2023-08-30T01:12:23;24.80;48.40
14138;DHT22;8199;51.310;9.466;2023-08-30T01:15:09;24.80;48.20
14138;DHT22;8199;51.310;9.466;2023-08-30T01:17:36;24.70;48.30
14138;DHT22;8199;51.310;9.466;2023-08-30T01:20:06;24.80;48.40
14138;DHT22;8199;51.310;9.466;2023-08-30T01:22:57;24.70;48.40
14138;DHT22;8199;51.310;9.466;2023-08-30T01:25:42;24.70;48.30
14138;DHT22;8199;51.310;9.466;2023-08-30T01:28:10;24.70;48.30
14138;DHT22;8199;51.310;9.466;2023-08-30T01:30:40;24.80;48.30
14138;DHT22;8199;51.310;9.466;2023-08-30T01:33:07;24.70;48.30
14138;DHT22;8199;51.310;9.466;2023-08-30T01:35:33;24.60;48.50
14138;DHT22;8199;51.310;9.466;2023-08-30T01:38:03;24.70;48.20
14138;DHT22;8199;51.310;9.466;2023-08-30T01:40:35;24.70;48.20
14138;DHT22;8199;51.310;9.466;2023-08-30T01:43:01;24.70;47.90
14138;DHT22;8199;51.310;9.466;2023-08-30T01:45:32;24.50;48.10
14138;DHT22;8199;51.310;9.466;2023-08-30T01:47:58;24.50;48.40
14138;DHT22;8199;51.310;9.466;2023-08-30T01:50:24;24.50;48.50
14138;DHT22;8199;51.310;9.466;2023-08-30T01:52:50;24.60;48.30
14138;DHT22;8199;51.310;9.466;2023-08-30T01:55:18;24.70;48.10
14138;DHT22;8199;51.310;9.466;2023-08-30T01:57:45;24.60;48.10
14138;DHT22;8199;51.310;9.466;2023-08-30T02:00:13;24.60;48.20
14138;DHT22;8199;51.310;9.466;2023-08-30T02:02:39;24.60;48.20
14138;DHT22;8199;51.310;9.466;2023-08-30T02:05:05;24.50;48.20
14138;DHT22;8199;51.310;9.466;2023-08-30T02:07:38;24.40;48.60
14138;DHT22;8199;51.310;9.466;2023-08-30T02:10:16;24.40;48.70
14138;DHT22;8199;51.310;9.466;2023-08-30T02:12:47;24.50;48.60
14138;DHT22;8199;51.310;9.466;2023-08-30T02:15:14;24.50;48.10
14138;DHT22;8199;51.310;9.466;2023-08-30T02:17:41;24.50;48.00
14138;DHT22;8199;51.310;9.466;2023-08-30T02:20:07;24.40;48.30
14138;DHT22;8199;51.310;9.466;2023-08-30T02:22:33;24.40;48.20
14138;DHT22;8199;51.310;9.466;2023-08-30T02:24:59;24.40;48.50
14138;DHT22;8199;51.310;9.466;2023-08-30T02:27:26;24.50;48.20
14138;DHT22;8199;51.310;9.466;2023-08-30T02:29:52;24.60;48.00
14138;DHT22;8199;51.310;9.466;2023-08-30T02:32:17;24.50;47.90
14138;DHT22;8199;51.310;9.466;2023-08-30T02:34:50;24.40;47.70
14138;DHT22;8199;51.310;9.466;2023-08-30T02:37:16;24.40;47.90
14138;DHT22;8199;51.310;9.466;2023-08-30T02:39:42;24.30;48.10
14138;DHT22;8199;51.310;9.466;2023-08-30T02:42:08;24.20;48.40
14138;DHT22;8199;51.310;9.466;2023-08-30T02:44:33;24.20;48.00
14138;DHT22;8199;51.310;9.466;2023-08-30T02:46:59;24.30;48.10
14138;DHT22;8199;51.310;9.466;2023-08-30T02:49:24;24.20;48.10
14138;DHT22;8199;51.310;9.466;2023-08-30T02:51:50;24.10;48.20
14138;DHT22;8199;51.310;9.466;2023-08-30T02:54:15;24.10;48.20
14138;DHT22;8199;51.310;9.466;2023-08-30T02:56:42;24.00;48.60
14138;DHT22;8199;51.310;9.466;2023-08-30T02:59:11;24.00;48.90
14138;DHT22;8199;51.310;9.466;2023-08-30T03:01:37;24.10;48.80
14138;DHT22;8199;51.310;9.466;2023-08-30T03:04:07;24.30;48.70
14138;DHT22;8199;51.310;9.466;2023-08-30T03:06:33;24.30;48.30
14138;DHT22;8199;51.310;9.466;2023-08-30T03:08:59;24.20;48.40
14138;DHT22;8199;51.310;9.466;2023-08-30T03:11:25;24.20;48.60
14138;DHT22;8199;51.310;9.466;2023-08-30T03:13:53;24.10;48.90
14138;DHT22;8199;51.310;9.466;2023-08-30T03:16:19;24.20;48.70
14138;DHT22;8199;51.310;9.466;2023-08-30T03:18:45;24.20;48.70
14138;DHT22;8199;51.310;9.466;2023-08-30T03:21:11;24.20;48.60
14138;DHT22;8199;51.310;9.466;2023-08-30T03:23:38;24.30;48.40
14138;DHT22;8199;51.310;9.466;2023-08-30T03:26:15;24.40;48.30
14138;DHT22;8199;51.310;9.466;2023-08-30T03:28:41;24.20;48.50
14138;DHT22;8199;51.310;9.466;2023-08-30T03:31:18;24.20;48.30
14138;DHT22;8199;51.310;9.466;2023-08-30T03:33:44;24.10;48.60
14138;DHT22;8199;51.310;9.466;2023-08-30T03:36:11;24.10;48.70
14138;DHT22;8199;51.310;9.466;2023-08-30T03:38:38;24.10;48.60
14138;DHT22;8199;51.310;9.466;2023-08-30T03:41:04;24.00;48.80
14138;DHT22;8199;51.310;9.466;2023-08-30T03:43:30;24.10;48.70
14138;DHT22;8199;51.310;9.466;2023-08-30T03:45:56;24.00;49.10
14138;DHT22;8199;51.310;9.466;2023-08-30T03:48:22;24.00;49.10
14138;DHT22;8199;51.310;9.466;2023-08-30T03:50:47;24.10;49.00
14138;DHT22;8199;51.310;9.466;2023-08-30T03:53:13;24.20;48.70
14138;DHT22;8199;51.310;9.466;2023-08-30T03:55:40;24.10;48.80
14138;DHT22;8199;51.310;9.466;2023-08-30T03:58:05;24.10;48.90
14138;DHT22;8199;51.310;9.466;2023-08-30T04:00:31;24.10;49.00
14138;DHT22;8199;51.310;9.466;2023-08-30T04:02:56;24.10;48.80
14138;DHT22;8199;51.310;9.466;2023-08-30T04:05:22;24.10;48.80
14138;DHT22;8199;51.310;9.466;2023-08-30T04:07:47;24.00;48.80
14138;DHT22;8199;51.310;9.466;2023-08-30T04:10:13;24.00;48.80
14138;DHT22;8199;51.310;9.466;2023-08-30T04:12:38;24.00;49.20
14138;DHT22;8199;51.310;9.466;2023-08-30T04:15:04;24.00;49.30
14138;DHT22;8199;51.310;9.466;2023-08-30T04:17:30;24.00;49.20
14138;DHT22;8199;51.310;9.466;2023-08-30T04:19:55;23.90;49.40
14138;DHT22;8199;51.310;9.466;2023-08-30T04:22:21;23.80;49.70
14138;DHT22;8199;51.310;9.466;2023-08-30T04:24:46;24.00;49.40
14138;DHT22;8199;51.310;9.466;2023-08-30T04:27:12;24.00;49.10
14138;DHT22;8199;51.310;9.466;2023-08-30T04:29:38;24.00;49.00
14138;DHT22;8199;51.310;9.466;2023-08-30T04:32:04;24.00;49.20
14138;DHT22;8199;51.310;9.466;2023-08-30T04:34:30;24.00;49.00
14138;DHT22;8199;51.310;9.466;2023-08-30T04:36:56;24.00;48.80
14138;DHT22;8199;51.310;9.466;2023-08-30T04:39:21;24.10;48.90
14138;DHT22;8199;51.310;9.466;2023-08-30T04:41:47;24.00;48.60
14138;DHT22;8199;51.310;9.466;2023-08-30T04:44:13;24.00;48.70
14138;DHT22;8199;51.310;9.466;2023-08-30T04:46:38;23.90;48.80
14138;DHT22;8199;51.310;9.466;2023-08-30T04:49:04;23.80;49.30
14138;DHT22;8199;51.310;9.466;2023-08-30T04:51:29;23.90;49.20
14138;DHT22;8199;51.310;9.466;2023-08-30T04:53:55;23.90;49.10
14138;DHT22;8199;51.310;9.466;2023-08-30T04:56:20;23.90;48.90
14138;DHT22;8199;51.310;9.466;2023-08-30T04:58:46;23.90;48.80
14138;DHT22;8199;51.310;9.466;2023-08-30T05:01:12;23.80;48.90
14138;DHT22;8199;51.310;9.466;2023-08-30T05:03:39;24.00;48.60
14138;DHT22;8199;51.310;9.466;2023-08-30T05:06:05;23.80;49.00
14138;DHT22;8199;51.310;9.466;2023-08-30T05:08:31;23.80;49.10
14138;DHT22;8199;51.310;9.466;2023-08-30T05:10:56;23.80;49.10
14138;DHT22;8199;51.310;9.466;2023-08-30T05:13:22;23.80;49.10
14138;DHT22;8199;51.310;9.466;2023-08-30T05:15:48;23.90;49.10
14138;DHT22;8199;51.310;9.466;2023-08-30T05:18:13;23.90;49.00
14138;DHT22;8199;51.310;9.466;2023-08-30T05:20:39;23.90;48.90
14138;DHT22;8199;51.310;9.466;2023-08-30T05:23:04;23.90;49.00
14138;DHT22;8199;51.310;9.466;2023-08-30T05:25:30;23.90;49.10
14138;DHT22;8199;51.310;9.466;2023-08-30T05:27:55;23.80;49.20
14138;DHT22;8199;51.310;9.466;2023-08-30T05:30:21;23.80;49.10
14138;DHT22;8199;51.310;9.466;2023-08-30T05:32:47;23.80;49.20
14138;DHT22;8199;51.310;9.466;2023-08-30T05:35:12;23.80;49.20
14138;DHT22;8199;51.310;9.466;2023-08-30T05:37:38;23.80;49.30
14138;DHT22;8199;51.310;9.466;2023-08-30T05:40:04;23.80;49.10
14138;DHT22;8199;51.310;9.466;2023-08-30T05:42:29;23.70;49.40
14138;DHT22;8199;51.310;9.466;2023-08-30T05:44:55;23.70;49.30
14138;DHT22;8199;51.310;9.466;2023-08-30T05:47:21;23.60;49.30
14138;DHT22;8199;51.310;9.466;2023-08-30T05:49:47;23.60;49.40
14138;DHT22;8199;51.310;9.466;2023-08-30T05:54:38;23.50;49.70
14138;DHT22;8199;51.310;9.466;2023-08-30T05:57:04;23.50;49.70
14138;DHT22;8199;51.310;9.466;2023-08-30T05:59:30;23.50;49.80
14138;DHT22;8199;51.310;9.466;2023-08-30T06:01:55;23.50;49.90
14138;DHT22;8199;51.310;9.466;2023-08-30T06:04:21;23.50;50.30
14138;DHT22;8199;51.310;9.466;2023-08-30T06:06:47;23.50;50.30
14138;DHT22;8199;51.310;9.466;2023-08-30T06:09:13;23.60;50.40
14138;DHT22;8199;51.310;9.466;2023-08-30T06:11:38;23.60;50.20
14138;DHT22;8199;51.310;9.466;2023-08-30T06:14:04;23.60;50.40
14138;DHT22;8199;51.310;9.466;2023-08-30T06:16:30;23.50;50.30
14138;DHT22;8199;51.310;9.466;2023-08-30T06:18:56;23.50;50.20
14138;DHT22;8199;51.310;9.466;2023-08-30T06:21:23;23.50;50.80
14138;DHT22;8199;51.310;9.466;2023-08-30T06:23:49;23.60;50.30
14138;DHT22;8199;51.310;9.466;2023-08-30T06:26:15;23.60;50.40
14138;DHT22;8199;51.310;9.466;2023-08-30T06:28:41;23.60;50.90
14138;DHT22;8199;51.310;9.466;2023-08-30T06:31:08;23.60;50.30
14138;DHT22;8199;51.310;9.466;2023-08-30T06:33:33;23.60;50.40
14138;DHT22;8199;51.310;9.466;2023-08-30T06:35:59;23.70;50.40
14138;DHT22;8199;51.310;9.466;2023-08-30T06:38:24;23.60;50.20
14138;DHT22;8199;51.310;9.466;2023-08-30T06:40:50;23.50;50.30
14138;DHT22;8199;51.310;9.466;2023-08-30T06:43:15;23.50;50.50
14138;DHT22;8199;51.310;9.466;2023-08-30T06:45:44;23.60;50.40
14138;DHT22;8199;51.310;9.466;2023-08-30T06:48:10;23.50;50.40
14138;DHT22;8199;51.310;9.466;2023-08-30T06:50:36;23.50;50.50
14138;DHT22;8199;51.310;9.466;2023-08-30T06:53:03;23.50;50.50
14138;DHT22;8199;51.310;9.466;2023-08-30T06:55:28;23.50;50.50
14138;DHT22;8199;51.310;9.466;2023-08-30T06:57:55;23.50;50.30
14138;DHT22;8199;51.310;9.466;2023-08-30T07:00:20;23.50;50.20
14138;DHT22;8199;51.310;9.466;2023-08-30T07:02:46;23.50;50.40
14138;DHT22;8199;51.310;9.466;2023-08-30T07:05:12;23.60;50.40
14138;DHT22;8199;51.310;9.466;2023-08-30T07:07:39;23.50;50.40
14138;DHT22;8199;51.310;9.466;2023-08-30T07:10:05;23.70;50.20
14138;DHT22;8199;51.310;9.466;2023-08-30T07:12:30;23.60;50.10
14138;DHT22;8199;51.310;9.466;2023-08-30T07:14:56;23.60;50.50
14138;DHT22;8199;51.310;9.466;2023-08-30T07:17:21;23.50;50.30
14138;DHT22;8199;51.310;9.466;2023-08-30T07:19:48;23.50;50.40
14138;DHT22;8199;51.310;9.466;2023-08-30T07:22:14;23.30;50.40
14138;DHT22;8199;51.310;9.466;2023-08-30T07:24:44;23.40;50.80
14138;DHT22;8199;51.310;9.466;2023-08-30T07:27:10;23.80;51.30
14138;DHT22;8199;51.310;9.466;2023-08-30T07:29:38;23.80;51.50
14138;DHT22;8199;51.310;9.466;2023-08-30T07:32:05;23.90;51.80
14138;DHT22;8199;51.310;9.466;2023-08-30T07:34:30;24.00;51.60
14138;DHT22;8199;51.310;9.466;2023-08-30T07:36:56;24.10;51.50
14138;DHT22;8199;51.310;9.466;2023-08-30T07:39:22;24.10;51.50
14138;DHT22;8199;51.310;9.466;2023-08-30T07:41:47;24.20;51.40
14138;DHT22;8199;51.310;9.466;2023-08-30T07:44:13;24.20;51.30
14138;DHT22;8199;51.310;9.466;2023-08-30T07:46:38;24.30;51.20
14138;DHT22;8199;51.310;9.466;2023-08-30T07:49:04;24.30;51.10
14138;DHT22;8199;51.310;9.466;2023-08-30T07:51:29;24.40;51.10
14138;DHT22;8199;51.310;9.466;2023-08-30T07:53:55;24.40;51.00
14138;DHT22;8199;51.310;9.466;2023-08-30T07:56:20;24.40;51.00
14138;DHT22;8199;51.310;9.466;2023-08-30T07:58:46;24.40;51.00
14138;DHT22;8199;51.310;9.466;2023-08-30T08:01:12;24.40;50.90
14138;DHT22;8199;51.310;9.466;2023-08-30T08:03:37;24.40;50.90
14138;DHT22;8199;51.310;9.466;2023-08-30T08:06:03;24.50;51.10
14138;DHT22;8199;51.310;9.466;2023-08-30T08:08:28;24.50;50.80
14138;DHT22;8199;51.310;9.466;2023-08-30T08:10:54;24.50;50.70
14138;DHT22;8199;51.310;9.466;2023-08-30T08:13:20;24.60;50.60
14138;DHT22;8199;51.310;9.466;2023-08-30T08:15:45;24.60;50.60
14138;DHT22;8199;51.310;9.466;2023-08-30T08:18:11;24.50;50.60
14138;DHT22;8199;51.310;9.466;2023-08-30T08:20:36;24.60;50.60
14138;DHT22;8199;51.310;9.466;2023-08-30T08:23:03;24.60;50.50
14138;DHT22;8199;51.310;9.466;2023-08-30T08:25:28;24.70;50.50
14138;DHT22;8199;51.310;9.466;2023-08-30T08:27:54;24.60;50.40
14138;DHT22;8199;51.310;9.466;2023-08-30T08:30:19;24.80;50.40
14138;DHT22;8199;51.310;9.466;2023-08-30T08:32:46;24.80;50.30
14138;DHT22;8199;51.310;9.466;2023-08-30T08:35:15;24.80;50.30
14138;DHT22;8199;51.310;9.466;2023-08-30T08:37:41;24.80;50.30
14138;DHT22;8199;51.310;9.466;2023-08-30T08:40:07;24.80;50.30
14138;DHT22;8199;51.310;9.466;2023-08-30T08:42:36;24.80;50.30
14138;DHT22;8199;51.310;9.466;2023-08-30T08:45:03;24.80;50.70
14138;DHT22;8199;51.310;9.466;2023-08-30T08:47:33;24.80;50.20
14138;DHT22;8199;51.310;9.466;2023-08-30T08:49:59;24.90;50.10
14138;DHT22;8199;51.310;9.466;2023-08-30T08:52:26;24.80;50.10
14138;DHT22;8199;51.310;9.466;2023-08-30T08:54:52;24.90;50.10
14138;DHT22;8199;51.310;9.466;2023-08-30T08:57:18;24.90;50.10
14138;DHT22;8199;51.310;9.466;2023-08-30T08:59:44;24.90;50.10
14138;DHT22;8199;51.310;9.466;2023-08-30T09:02:12;24.90;50.10
14138;DHT22;8199;51.310;9.466;2023-08-30T09:04:39;25.00;50.10
14138;DHT22;8199;51.310;9.466;2023-08-30T09:07:05;24.90;50.00
14138;DHT22;8199;51.310;9.466;2023-08-30T09:09:30;24.90;50.00
14138;DHT22;8199;51.310;9.466;2023-08-30T09:11:56;24.90;50.00
14138;DHT22;8199;51.310;9.466;2023-08-30T09:14:22;25.00;50.00
14138;DHT22;8199;51.310;9.466;2023-08-30T09:17:14;24.90;50.00
14138;DHT22;8199;51.310;9.466;2023-08-30T09:19:39;24.90;50.10
14138;DHT22;8199;51.310;9.466;2023-08-30T09:22:05;25.00;50.00
14138;DHT22;8199;51.310;9.466;2023-08-30T09:24:40;25.00;49.90
14138;DHT22;8199;51.310;9.466;2023-08-30T09:27:06;25.00;49.90
14138;DHT22;8199;51.310;9.466;2023-08-30T09:29:32;25.00;49.90
14138;DHT22;8199;51.310;9.466;2023-08-30T09:31:57;25.10;49.90
14138;DHT22;8199;51.310;9.466;2023-08-30T09:34:23;25.00;49.90
14138;DHT22;8199;51.310;9.466;2023-08-30T09:36:52;25.10;49.90
14138;DHT22;8199;51.310;9.466;2023-08-30T09:39:18;25.10;49.90
14138;DHT22;8199;51.310;9.466;2023-08-30T09:41:48;25.10;49.90
14138;DHT22;8199;51.310;9.466;2023-08-30T09:44:21;25.10;50.40
14138;DHT22;8199;51.310;9.466;2023-08-30T09:46:49;25.10;49.80
14138;DHT22;8199;51.310;9.466;2023-08-30T09:49:15;25.10;49.80
14138;DHT22;8199;51.310;9.466;2023-08-30T09:51:43;25.10;49.90
14138;DHT22;8199;51.310;9.466;2023-08-30T09:54:15;25.10;49.90
14138;DHT22;8199;51.310;9.466;2023-08-30T09:56:42;25.10;49.90
14138;DHT22;8199;51.310;9.466;2023-08-30T09:59:10;25.10;49.80
14138;DHT22;8199;51.310;9.466;2023-08-30T10:01:37;25.10;49.80
14138;DHT22;8199;51.310;9.466;2023-08-30T10:04:03;25.20;49.90
14138;DHT22;8199;51.310;9.466;2023-08-30T10:06:30;25.20;49.90
14138;DHT22;8199;51.310;9.466;2023-08-30T10:08:56;25.10;49.80
14138;DHT22;8199;51.310;9.466;2023-08-30T10:11:24;25.20;49.90
14138;DHT22;8199;51.310;9.466;2023-08-30T10:13:51;25.20;49.90
14138;DHT22;8199;51.310;9.466;2023-08-30T10:16:22;25.20;49.90
14138;DHT22;8199;51.310;9.466;2023-08-30T10:18:53;25.20;49.80
14138;DHT22;8199;51.310;9.466;2023-08-30T10:21:20;25.20;49.80
14138;DHT22;8199;51.310;9.466;2023-08-30T10:23:48;25.20;49.90
14138;DHT22;8199;51.310;9.466;2023-08-30T10:26:17;25.20;49.90
14138;DHT22;8199;51.310;9.466;2023-08-30T10:28:44;25.20;49.90
14138;DHT22;8199;51.310;9.466;2023-08-30T10:31:13;25.20;49.80
14138;DHT22;8199;51.310;9.466;2023-08-30T10:33:49;25.20;50.30
14138;DHT22;8199;51.310;9.466;2023-08-30T10:38:50;25.30;49.90
14138;DHT22;8199;51.310;9.466;2023-08-30T10:41:20;25.20;49.80
14138;DHT22;8199;51.310;9.466;2023-08-30T10:43:50;25.20;49.80
14138;DHT22;8199;51.310;9.466;2023-08-30T10:46:16;25.30;49.80
14138;DHT22;8199;51.310;9.466;2023-08-30T10:48:42;25.30;49.80
14138;DHT22;8199;51.310;9.466;2023-08-30T10:51:22;25.30;49.80
14138;DHT22;8199;51.310;9.466;2023-08-30T10:54:13;25.30;49.80
14138;DHT22;8199;51.310;9.466;2023-08-30T10:59:21;25.30;49.80
14138;DHT22;8199;51.310;9.466;2023-08-30T11:01:48;25.30;49.80
14138;DHT22;8199;51.310;9.466;2023-08-30T11:04:16;25.30;49.90
14138;DHT22;8199;51.310;9.466;2023-08-30T11:06:46;25.30;49.90
14138;DHT22;8199;51.310;9.466;2023-08-30T11:09:13;25.30;49.90
14138;DHT22;8199;51.310;9.466;2023-08-30T11:11:40;25.30;49.90
14138;DHT22;8199;51.310;9.466;2023-08-30T11:14:09;25.30;49.90
14138;DHT22;8199;51.310;9.466;2023-08-30T11:16:35;25.40;49.90
14138;DHT22;8199;51.310;9.466;2023-08-30T11:19:05;25.30;49.90
14138;DHT22;8199;51.310;9.466;2023-08-30T11:21:32;25.30;49.90
14138;DHT22;8199;51.310;9.466;2023-08-30T11:23:58;25.30;50.00
14138;DHT22;8199;51.310;9.466;2023-08-30T11:26:24;25.30;49.90
14138;DHT22;8199;51.310;9.466;2023-08-30T11:28:50;25.40;49.90
14138;DHT22;8199;51.310;9.466;2023-08-30T11:31:36;25.40;49.90
14138;DHT22;8199;51.310;9.466;2023-08-30T11:34:01;25.40;49.80
14138;DHT22;8199;51.310;9.466;2023-08-30T11:36:31;25.40;49.80
14138;DHT22;8199;51.310;9.466;2023-08-30T11:38:58;25.40;49.80
14138;DHT22;8199;51.310;9.466;2023-08-30T11:41:24;25.40;49.90
14138;DHT22;8199;51.310;9.466;2023-08-30T11:43:51;25.40;49.90
14138;DHT22;8199;51.310;9.466;2023-08-30T11:46:18;25.30;49.80
14138;DHT22;8199;51.310;9.466;2023-08-30T11:48:44;25.30;49.80
14138;DHT22;8199;51.310;9.466;2023-08-30T11:51:11;25.40;49.80
14138;DHT22;8199;51.310;9.466;2023-08-30T11:53:38;25.40;49.90
14138;DHT22;8199;51.310;9.466;2023-08-30T11:56:07;25.40;49.90
14138;DHT22;8199;51.310;9.466;2023-08-30T11:58:34;25.40;49.90
14138;DHT22;8199;51.310;9.466;2023-08-30T12:01:00;25.40;49.90
14138;DHT22;8199;51.310;9.466;2023-08-30T12:03:27;25.40;49.90
14138;DHT22;8199;51.310;9.466;2023-08-30T12:05:54;25.40;50.00
14138;DHT22;8199;51.310;9.466;2023-08-30T12:08:27;25.40;49.90
14138;DHT22;8199;51.310;9.466;2023-08-30T12:10:54;25.40;49.90
14138;DHT22;8199;51.310;9.466;2023-08-30T12:15:51;25.40;49.90
14138;DHT22;8199;51.310;9.466;2023-08-30T12:18:16;25.50;49.80
14138;DHT22;8199;51.310;9.466;2023-08-30T12:20:56;25.50;49.90
14138;DHT22;8199;51.310;9.466;2023-08-30T12:23:27;25.50;49.80
14138;DHT22;8199;51.310;9.466;2023-08-30T12:26:31;25.50;49.80
14138;DHT22;8199;51.310;9.466;2023-08-30T12:28:58;25.50;49.80
14138;DHT22;8199;51.310;9.466;2023-08-30T12:31:23;25.50;49.80
14138;DHT22;8199;51.310;9.466;2023-08-30T12:33:49;25.50;49.80
14138;DHT22;8199;51.310;9.466;2023-08-30T12:36:14;25.50;49.80
14138;DHT22;8199;51.310;9.466;2023-08-30T12:38:40;25.40;49.80
14138;DHT22;8199;51.310;9.466;2023-08-30T12:41:05;25.50;49.80
14138;DHT22;8199;51.310;9.466;2023-08-30T12:43:31;25.50;49.80
14138;DHT22;8199;51.310;9.466;2023-08-30T12:45:56;25.50;49.80
14138;DHT22;8199;51.310;9.466;2023-08-30T12:48:22;25.50;49.80
14138;DHT22;8199;51.310;9.466;2023-08-30T12:50:48;25.40;49.90
14138;DHT22;8199;51.310;9.466;2023-08-30T12:53:14;25.40;49.90
14138;DHT22;8199;51.310;9.466;2023-08-30T12:55:43;25.40;49.80
14138;DHT22;8199;51.310;9.466;2023-08-30T12:58:09;25.50;49.80
14138;DHT22;8199;51.310;9.466;2023-08-30T13:00:35;25.40;49.80
14138;DHT22;8199;51.310;9.466;2023-08-30T13:03:01;25.50;49.80
14138;DHT22;8199;51.310;9.466;2023-08-30T13:05:28;25.50;49.80
14138;DHT22;8199;51.310;9.466;2023-08-30T13:07:55;25.40;49.90
14138;DHT22;8199;51.310;9.466;2023-08-30T13:10:21;25.50;49.80
14138;DHT22;8199;51.310;9.466;2023-08-30T13:12:47;25.40;49.80
14138;DHT22;8199;51.310;9.466;2023-08-30T13:15:12;25.30;49.90
14138;DHT22;8199;51.310;9.466;2023-08-30T13:17:38;25.50;50.00
14138;DHT22;8199;51.310;9.466;2023-08-30T13:20:04;25.40;49.80
14138;DHT22;8199;51.310;9.466;2023-08-30T13:22:30;25.50;49.80
14138;DHT22;8199;51.310;9.466;2023-08-30T13:24:56;25.40;49.80
14138;DHT22;8199;51.310;9.466;2023-08-30T13:27:22;25.50;49.90
14138;DHT22;8199;51.310;9.466;2023-08-30T13:29:48;25.50;49.80
14138;DHT22;8199;51.310;9.466;2023-08-30T13:32:13;25.50;49.80
14138;DHT22;8199;51.310;9.466;2023-08-30T13:34:39;25.50;49.80
14138;DHT22;8199;51.310;9.466;2023-08-30T13:37:05;25.50;49.80
14138;DHT22;8199;51.310;9.466;2023-08-30T13:39:30;25.50;49.80
14138;DHT22;8199;51.310;9.466;2023-08-30T13:41:56;25.50;49.80
14138;DHT22;8199;51.310;9.466;2023-08-30T13:44:21;25.50;49.80
14138;DHT22;8199;51.310;9.466;2023-08-30T13:46:47;25.50;49.70
14138;DHT22;8199;51.310;9.466;2023-08-30T13:49:14;25.50;49.70
14138;DHT22;8199;51.310;9.466;2023-08-30T13:51:41;25.50;49.70
14138;DHT22;8199;51.310;9.466;2023-08-30T13:54:06;25.50;49.80
14138;DHT22;8199;51.310;9.466;2023-08-30T13:56:32;25.60;49.80
14138;DHT22;8199;51.310;9.466;2023-08-30T13:58:58;25.50;50.00
14138;DHT22;8199;51.310;9.466;2023-08-30T14:01:24;25.50;50.20
14138;DHT22;8199;51.310;9.466;2023-08-30T14:03:49;25.50;50.20
14138;DHT22;8199;51.310;9.466;2023-08-30T14:06:15;25.50;50.40
14138;DHT22;8199;51.310;9.466;2023-08-30T14:08:41;25.50;50.40
14138;DHT22;8199;51.310;9.466;2023-08-30T14:11:07;25.50;50.20
14138;DHT22;8199;51.310;9.466;2023-08-30T14:13:33;25.50;50.20
14138;DHT22;8199;51.310;9.466;2023-08-30T14:16:00;25.60;50.20
14138;DHT22;8199;51.310;9.466;2023-08-30T14:18:26;25.60;50.20
14138;DHT22;8199;51.310;9.466;2023-08-30T14:20:55;25.60;50.20
14138;DHT22;8199;51.310;9.466;2023-08-30T14:23:21;25.70;50.20
14138;DHT22;8199;51.310;9.466;2023-08-30T14:26:04;25.70;50.20
14138;DHT22;8199;51.310;9.466;2023-08-30T14:28:39;25.70;50.20
14138;DHT22;8199;51.310;9.466;2023-08-30T14:31:09;25.70;50.10
14138;DHT22;8199;51.310;9.466;2023-08-30T14:33:35;25.70;50.10
14138;DHT22;8199;51.310;9.466;2023-08-30T14:36:01;25.70;50.60
14138;DHT22;8199;51.310;9.466;2023-08-30T14:38:28;25.70;50.20
14138;DHT22;8199;51.310;9.466;2023-08-30T14:40:57;25.70;50.20
14138;DHT22;8199;51.310;9.466;2023-08-30T14:43:23;25.70;50.20
14138;DHT22;8199;51.310;9.466;2023-08-30T14:45:51;25.70;50.20
14138;DHT22;8199;51.310;9.466;2023-08-30T14:48:17;25.70;50.10
14138;DHT22;8199;51.310;9.466;2023-08-30T14:50:42;25.80;50.20
14138;DHT22;8199;51.310;9.466;2023-08-30T14:53:08;25.70;50.10
14138;DHT22;8199;51.310;9.466;2023-08-30T14:55:34;25.80;50.20
14138;DHT22;8199;51.310;9.466;2023-08-30T14:57:59;25.80;50.20
14138;DHT22;8199;51.310;9.466;2023-08-30T15:00:25;25.80;50.20
14138;DHT22;8199;51.310;9.466;2023-08-30T15:02:51;25.80;50.20
14138;DHT22;8199;51.310;9.466;2023-08-30T15:05:17;25.80;50.20
14138;DHT22;8199;51.310;9.466;2023-08-30T15:07:43;25.80;50.20
14138;DHT22;8199;51.310;9.466;2023-08-30T15:10:09;25.80;50.20
14138;DHT22;8199;51.310;9.466;2023-08-30T15:12:35;25.80;50.10
14138;DHT22;8199;51.310;9.466;2023-08-30T15:15:02;25.80;50.10
14138;DHT22;8199;51.310;9.466;2023-08-30T15:17:28;25.80;50.10
14138;DHT22;8199;51.310;9.466;2023-08-30T15:19:53;25.80;50.10
14138;DHT22;8199;51.310;9.466;2023-08-30T15:22:19;25.90;50.10
14138;DHT22;8199;51.310;9.466;2023-08-30T15:24:45;25.80;50.10
14138;DHT22;8199;51.310;9.466;2023-08-30T15:27:10;25.80;50.10
14138;DHT22;8199;51.310;9.466;2023-08-30T15:29:36;25.80;50.10
14138;DHT22;8199;51.310;9.466;2023-08-30T15:32:01;25.90;50.10
14138;DHT22;8199;51.310;9.466;2023-08-30T15:34:27;25.90;50.30
14138;DHT22;8199;51.310;9.466;2023-08-30T15:36:53;25.90;50.30
14138;DHT22;8199;51.310;9.466;2023-08-30T15:39:18;25.90;50.30
14138;DHT22;8199;51.310;9.466;2023-08-30T15:41:44;25.90;50.40
14138;DHT22;8199;51.310;9.466;2023-08-30T15:44:10;25.90;50.40
14138;DHT22;8199;51.310;9.466;2023-08-30T15:46:36;25.90;50.40
14138;DHT22;8199;51.310;9.466;2023-08-30T15:49:02;25.90;50.30
14138;DHT22;8199;51.310;9.466;2023-08-30T15:51:28;25.90;50.40
14138;DHT22;8199;51.310;9.466;2023-08-30T15:53:53;25.90;50.30